Time,TemperatureF,DewpointF,PressureIn,WindDirection,WindDirectionDegrees,WindSpeedMPH,WindSpeedGustMPH,Humidity,HourlyPrecipIn,Conditions,Clouds,dailyrainin,SoftwareType,DateUTC
2013-07-12 00:14:00,70.5,67.7,29.78,ESE,112,2.2,-999.0,91,-99.99,,,0.00,Acu-Link.com,2013-07-12 04:14:00,
2013-07-12 00:29:00,70.0,67.2,29.79,West,270,1.7,-999.0,91,-99.99,,,0.00,Acu-Link.com,2013-07-12 04:29:00,
2013-07-12 00:44:00,69.3,67.2,29.79,WNW,292,1.7,-999.0,93,-99.99,,,0.00,Acu-Link.com,2013-07-12 04:44:00,
2013-07-12 00:59:00,68.9,67.1,29.80,East,90,2.2,-999.0,94,-99.99,,,0.00,Acu-Link.com,2013-07-12 04:59:00,
2013-07-12 01:14:00,68.9,67.1,29.79,ESE,112,2.7,-999.0,94,-99.99,,,0.00,Acu-Link.com,2013-07-12 05:14:00,
2013-07-12 01:30:00,68.7,66.9,29.80,SE,135,4.2,-999.0,94,-99.99,,,0.00,Acu-Link.com,2013-07-12 05:30:00,
2013-07-12 01:45:00,68.7,66.6,29.80,ESE,112,2.2,-999.0,93,-99.99,,,0.00,Acu-Link.com,2013-07-12 05:45:00,
2013-07-12 02:00:00,68.7,66.3,29.81,ESE,112,2.7,-999.0,92,-99.99,,,0.00,Acu-Link.com,2013-07-12 06:00:00,
2013-07-12 02:15:00,68.4,65.7,29.81,North,0,1.7,-999.0,91,-99.99,,,0.00,Acu-Link.com,2013-07-12 06:15:00,
2013-07-12 02:30:00,68.0,65.3,29.82,East,90,1.7,-999.0,91,-99.99,,,0.00,Acu-Link.com,2013-07-12 06:30:00,
2013-07-12 02:46:00,68.2,64.2,29.81,SSE,157,1.7,-999.0,87,-99.99,,,0.00,Acu-Link.com,2013-07-12 06:46:00,
2013-07-12 03:01:00,67.8,63.5,29.83,SE,135,2.2,-999.0,86,-99.99,,,0.00,Acu-Link.com,2013-07-12 07:01:00,
2013-07-12 03:16:00,67.8,62.8,29.83,NE,45,2.7,-999.0,84,-99.99,,,0.00,Acu-Link.com,2013-07-12 07:16:00,
2013-07-12 03:31:00,67.6,62.2,29.84,South,180,3.2,-999.0,83,-99.99,,,0.00,Acu-Link.com,2013-07-12 07:31:00,
2013-07-12 03:46:00,67.1,61.8,29.84,West,270,1.7,-999.0,83,-99.99,,,0.00,Acu-Link.com,2013-07-12 07:46:00,
2013-07-12 04:02:00,66.7,61.4,29.85,East,90,1.1,-999.0,83,-99.99,,,0.00,Acu-Link.com,2013-07-12 08:02:00,
2013-07-12 04:17:00,66.7,61.4,29.86,NE,45,1.1,-999.0,83,-99.99,,,0.00,Acu-Link.com,2013-07-12 08:17:00,
2013-07-12 04:32:00,66.7,61.4,29.86,ESE,112,3.7,-999.0,83,-99.99,,,0.00,Acu-Link.com,2013-07-12 08:32:00,
2013-07-12 04:47:00,66.9,61.2,29.86,NNE,22,1.1,-999.0,82,-99.99,,,0.00,Acu-Link.com,2013-07-12 08:47:00,
2013-07-12 05:02:00,66.6,61.3,29.88,NNE,22,0.0,-999.0,83,-99.99,,,0.00,Acu-Link.com,2013-07-12 09:02:00,
2013-07-12 05:17:00,66.2,61.2,29.88,ESE,112,2.2,-999.0,84,-99.99,,,0.00,Acu-Link.com,2013-07-12 09:17:00,
2013-07-12 05:33:00,65.8,61.2,29.88,ESE,112,2.2,-999.0,85,-99.99,,,0.00,Acu-Link.com,2013-07-12 09:33:00,
2013-07-12 05:48:00,65.8,61.2,29.88,ENE,67,3.7,-999.0,85,-99.99,,,0.00,Acu-Link.com,2013-07-12 09:48:00,
2013-07-12 06:03:00,66.6,61.3,29.89,NE,45,1.7,-999.0,83,-99.99,,,0.00,Acu-Link.com,2013-07-12 10:03:00,
2013-07-12 06:18:00,67.6,61.2,29.90,ENE,67,2.7,-999.0,80,-99.99,,,0.00,Acu-Link.com,2013-07-12 10:18:00,
2013-07-12 06:33:00,68.4,61.6,29.90,NE,45,3.7,-999.0,79,-99.99,,,0.00,Acu-Link.com,2013-07-12 10:33:00,
2013-07-12 06:48:00,70.9,62.2,29.91,ESE,112,2.7,-999.0,74,-99.99,,,0.00,Acu-Link.com,2013-07-12 10:48:00,
2013-07-12 07:04:00,70.9,61.8,29.91,East,90,4.2,-999.0,73,-99.99,,,0.00,Acu-Link.com,2013-07-12 11:04:00,
2013-07-12 07:19:00,70.0,61.7,29.92,NE,45,5.3,-999.0,75,-99.99,,,0.00,Acu-Link.com,2013-07-12 11:19:00,
2013-07-12 07:34:00,70.9,61.8,29.93,NE,45,4.2,-999.0,73,-99.99,,,0.00,Acu-Link.com,2013-07-12 11:34:00,
2013-07-12 07:49:00,72.3,62.4,29.93,North,0,2.2,-999.0,71,-99.99,,,0.00,Acu-Link.com,2013-07-12 11:49:00,
2013-07-12 08:04:00,72.9,62.1,29.94,South,180,2.7,-999.0,69,-99.99,,,0.00,Acu-Link.com,2013-07-12 12:04:00,
2013-07-12 08:20:00,71.6,62.1,29.94,NE,45,3.7,-999.0,72,-99.99,,,0.00,Acu-Link.com,2013-07-12 12:20:00,
2013-07-12 08:35:00,72.3,61.5,29.94,NNE,22,5.3,-999.0,69,-99.99,,,0.00,Acu-Link.com,2013-07-12 12:35:00,
2013-07-12 08:50:00,72.5,62.1,29.95,NNE,22,4.2,-999.0,70,-99.99,,,0.00,Acu-Link.com,2013-07-12 12:50:00,
2013-07-12 09:05:00,72.7,62.7,29.95,NE,45,5.8,-999.0,71,-99.99,,,0.00,Acu-Link.com,2013-07-12 13:05:00,
2013-07-12 09:20:00,74.1,62.4,29.95,NW,315,4.2,-999.0,67,-99.99,,,0.00,Acu-Link.com,2013-07-12 13:20:00,
2013-07-12 09:36:00,72.7,61.9,29.95,North,0,5.3,-999.0,69,-99.99,,,0.00,Acu-Link.com,2013-07-12 13:36:00,
2013-07-12 09:51:00,73.2,62.0,29.96,NE,45,4.7,-999.0,68,-99.99,,,0.00,Acu-Link.com,2013-07-12 13:51:00,
2013-07-12 10:06:00,75.4,62.4,29.96,ENE,67,8.3,-999.0,64,-99.99,,,0.00,Acu-Link.com,2013-07-12 14:06:00,
2013-07-12 10:21:00,76.5,63.4,29.96,SSW,202,3.2,-999.0,64,-99.99,,,0.00,Acu-Link.com,2013-07-12 14:21:00,
2013-07-12 10:36:00,76.1,61.7,29.96,SE,135,7.8,-999.0,61,-99.99,,,0.00,Acu-Link.com,2013-07-12 14:36:00,
2013-07-12 10:52:00,75.0,60.6,29.97,ENE,67,5.3,-999.0,61,-99.99,,,0.00,Acu-Link.com,2013-07-12 14:52:00,
2013-07-12 11:07:00,75.2,60.8,29.97,SE,135,3.2,-999.0,61,-99.99,,,0.00,Acu-Link.com,2013-07-12 15:07:00,
2013-07-12 11:22:00,75.7,61.3,29.97,East,90,5.8,-999.0,61,-99.99,,,0.00,Acu-Link.com,2013-07-12 15:22:00,
2013-07-12 11:37:00,73.9,60.0,29.98,ESE,112,9.4,-999.0,62,-99.99,,,0.00,Acu-Link.com,2013-07-12 15:37:00,
2013-07-12 11:53:00,74.5,61.1,29.98,ESE,112,3.2,-999.0,63,-99.99,,,0.00,Acu-Link.com,2013-07-12 15:53:00,
2013-07-12 12:08:00,74.1,59.8,29.99,NNE,22,8.9,-999.0,61,-99.99,,,0.00,Acu-Link.com,2013-07-12 16:08:00,
2013-07-12 12:23:00,73.8,60.8,29.98,East,90,4.2,-999.0,64,-99.99,,,0.00,Acu-Link.com,2013-07-12 16:23:00,
2013-07-12 12:38:00,74.3,59.5,29.99,ENE,67,4.7,-999.0,60,-99.99,,,0.00,Acu-Link.com,2013-07-12 16:38:00,
2013-07-12 12:53:00,75.2,57.4,29.98,NNE,22,6.8,-999.0,54,-99.99,,,0.00,Acu-Link.com,2013-07-12 16:53:00,
2013-07-12 13:09:00,75.4,57.1,29.98,ESE,112,9.9,-999.0,53,-99.99,,,0.00,Acu-Link.com,2013-07-12 17:09:00,
2013-07-12 13:24:00,76.8,56.7,29.98,North,0,12.5,-999.0,50,-99.99,,,0.00,Acu-Link.com,2013-07-12 17:24:00,
2013-07-12 13:39:00,77.9,56.6,29.98,NE,45,5.3,-999.0,48,-99.99,,,0.00,Acu-Link.com,2013-07-12 17:39:00,
2013-07-12 13:54:00,77.7,58.1,29.98,ESE,112,5.3,-999.0,51,-99.99,,,0.00,Acu-Link.com,2013-07-12 17:54:00,
2013-07-12 14:09:00,77.9,57.2,29.98,ESE,112,8.9,-999.0,49,-99.99,,,0.00,Acu-Link.com,2013-07-12 18:09:00,
2013-07-12 14:25:00,77.9,57.7,29.98,East,90,5.8,-999.0,50,-99.99,,,0.00,Acu-Link.com,2013-07-12 18:25:00,
2013-07-12 14:55:00,78.4,57.1,29.98,South,180,3.2,-999.0,48,-99.99,,,0.00,Acu-Link.com,2013-07-12 18:55:00,
2013-07-12 15:26:00,77.9,57.2,29.99,ESE,112,7.3,-999.0,49,-99.99,,,0.00,Acu-Link.com,2013-07-12 19:26:00,
2013-07-12 15:41:00,77.7,59.2,29.98,East,90,5.3,-999.0,53,-99.99,,,0.00,Acu-Link.com,2013-07-12 19:41:00,
2013-07-12 16:11:00,77.9,57.2,29.97,ESE,112,7.3,-999.0,49,-99.99,,,0.00,Acu-Link.com,2013-07-12 20:11:00,
2013-07-12 16:26:00,77.7,58.7,29.98,NNE,22,6.3,-999.0,52,-99.99,,,0.00,Acu-Link.com,2013-07-12 20:26:00,
2013-07-12 16:42:00,76.8,57.3,29.98,ESE,112,8.3,-999.0,51,-99.99,,,0.00,Acu-Link.com,2013-07-12 20:42:00,
2013-07-12 16:57:00,77.9,58.3,29.98,South,180,1.7,-999.0,51,-99.99,,,0.00,Acu-Link.com,2013-07-12 20:57:00,
2013-07-12 17:27:00,79.2,58.9,29.99,ESE,112,9.4,-999.0,50,-99.99,,,0.00,Acu-Link.com,2013-07-12 21:27:00,
2013-07-12 17:42:00,77.4,58.4,29.99,East,90,6.3,-999.0,52,-99.99,,,0.00,Acu-Link.com,2013-07-12 21:42:00,
2013-07-12 18:13:00,75.4,57.6,29.99,SSE,157,2.7,-999.0,54,-99.99,,,0.00,Acu-Link.com,2013-07-12 22:13:00,
2013-07-12 18:28:00,74.3,57.6,29.99,East,90,4.2,-999.0,56,-99.99,,,0.00,Acu-Link.com,2013-07-12 22:28:00,
2013-07-12 18:43:00,73.9,57.7,29.99,SE,135,2.7,-999.0,57,-99.99,,,0.00,Acu-Link.com,2013-07-12 22:43:00,
2013-07-12 18:58:00,73.0,56.4,29.98,ESE,112,3.2,-999.0,56,-99.99,,,0.00,Acu-Link.com,2013-07-12 22:58:00,
2013-07-12 19:14:00,72.7,57.5,29.99,NNE,22,0.0,-999.0,59,-99.99,,,0.00,Acu-Link.com,2013-07-12 23:14:00,
2013-07-12 19:29:00,72.3,58.1,29.99,East,90,2.2,-999.0,61,-99.99,,,0.00,Acu-Link.com,2013-07-12 23:29:00,
2013-07-12 19:44:00,71.4,57.7,30.00,SSE,157,1.1,-999.0,62,-99.99,,,0.00,Acu-Link.com,2013-07-12 23:44:00,
2013-07-12 19:59:00,71.1,57.9,30.01,South,180,0.0,-999.0,63,-99.99,,,0.00,Acu-Link.com,2013-07-12 23:59:00,
2013-07-12 20:30:00,69.8,56.6,30.01,SSE,157,1.7,-999.0,63,-99.99,,,0.00,Acu-Link.com,2013-07-13 00:30:00,
2013-07-12 20:45:00,68.9,56.6,30.02,South,180,0.0,-999.0,65,-99.99,,,0.00,Acu-Link.com,2013-07-13 00:45:00,
2013-07-12 21:00:00,68.4,56.6,30.01,ESE,112,0.0,-999.0,66,-99.99,,,0.00,Acu-Link.com,2013-07-13 01:00:00,
2013-07-12 21:15:00,67.8,56.4,30.02,ESE,112,0.0,-999.0,67,-99.99,,,0.00,Acu-Link.com,2013-07-13 01:15:00,
2013-07-12 21:46:00,66.6,57.7,30.02,NW,315,0.0,-999.0,73,-99.99,,,0.00,Acu-Link.com,2013-07-13 01:46:00,
2013-07-12 22:01:00,66.6,57.3,30.02,ESE,112,0.0,-999.0,72,-99.99,,,0.00,Acu-Link.com,2013-07-13 02:01:00,
2013-07-12 22:31:00,66.0,57.5,30.03,West,270,0.0,-999.0,74,-99.99,,,0.00,Acu-Link.com,2013-07-13 02:31:00,
2013-07-12 22:47:00,66.0,58.2,30.03,East,90,0.0,-999.0,76,-99.99,,,0.00,Acu-Link.com,2013-07-13 02:47:00,
2013-07-12 23:32:00,65.1,58.8,30.05,NNE,22,0.0,-999.0,80,-99.99,,,0.00,Acu-Link.com,2013-07-13 03:32:00,
2013-07-12 23:47:00,64.9,58.6,30.05,ESE,112,0.0,-999.0,80,-99.99,,,0.00,Acu-Link.com,2013-07-13 03:47:00,